createdAt,value
2022-12-15T00:02:36.922Z,39.10
2022-12-15T00:05:23.086Z,43.40
2022-12-15T00:08:09.127Z,39.10
2022-12-15T00:10:54.993Z,33.65
2022-12-15T00:13:40.745Z,34.22
2022-12-15T00:16:26.967Z,38.28
2022-12-15T00:19:14.393Z,40.03
2022-12-15T00:21:59.923Z,32.22
2022-12-15T00:24:45.582Z,30.55
2022-12-15T00:27:35.215Z,35.90
2022-12-15T00:30:21.034Z,34.20
2022-12-15T00:33:06.544Z,32.97
2022-12-15T00:35:53.860Z,38.97
2022-12-15T00:38:39.631Z,36.75
2022-12-15T00:41:08.136Z,35.38
2022-12-15T00:43:37.474Z,35.90
2022-12-15T00:46:23.929Z,33.63
2022-12-15T00:48:52.463Z,38.05
2022-12-15T00:51:21.377Z,35.22
2022-12-15T00:54:07.227Z,36.13
2022-12-15T00:56:53.194Z,35.47
2022-12-15T00:59:38.828Z,30.73
2022-12-15T01:02:24.617Z,34.13
2022-12-15T01:05:10.389Z,35.35
2022-12-15T01:07:57.128Z,35.60
2022-12-15T01:10:42.773Z,32.78
2022-12-15T01:13:32.500Z,30.33
2022-12-15T01:16:18.387Z,31.90
2022-12-15T01:19:04.004Z,31.33
2022-12-15T01:21:33.592Z,37.33
2022-12-15T01:24:03.280Z,39.17
2022-12-15T01:26:31.614Z,38.95
2022-12-15T01:28:59.828Z,31.70
2022-12-15T01:31:28.098Z,28.65
2022-12-15T01:33:56.440Z,35.35
2022-12-15T01:36:24.789Z,33.35
2022-12-15T01:38:54.576Z,35.42
2022-12-15T01:41:23.681Z,31.33
2022-12-15T01:43:52.003Z,35.28
2022-12-15T01:46:22.377Z,33.53
2022-12-15T01:48:55.695Z,31.38
2022-12-15T01:51:28.128Z,30.58
2022-12-15T01:54:01.090Z,31.08
2022-12-15T01:56:37.270Z,31.88
2022-12-15T01:59:09.064Z,32.55
2022-12-15T02:01:37.413Z,34.75
2022-12-15T02:04:05.981Z,30.77
2022-12-15T02:06:34.317Z,34.78
2022-12-15T02:09:03.421Z,33.10
2022-12-15T02:11:45.546Z,37.92
2022-12-15T02:14:21.164Z,37.85
2022-12-15T02:17:03.499Z,37.35
2022-12-15T02:20:24.466Z,33.07
2022-12-15T02:23:21.559Z,38.97
2022-12-15T02:26:15.537Z,33.58
2022-12-15T02:28:53.869Z,33.58
2022-12-15T02:31:46.475Z,35.85
2022-12-15T02:34:25.856Z,31.05
2022-12-15T02:36:58.744Z,34.90
2022-12-15T02:39:27.448Z,34.90
2022-12-15T02:41:55.865Z,34.55
2022-12-15T02:44:27.654Z,33.38
2022-12-15T02:47:20.003Z,28.20
2022-12-15T02:50:05.572Z,34.80
2022-12-15T02:52:45.385Z,29.05
2022-12-15T02:55:21.442Z,29.83
2022-12-15T02:57:57.936Z,30.77
2022-12-15T03:00:26.349Z,34.72
2022-12-15T03:02:57.287Z,32.95
2022-12-15T03:05:26.952Z,29.65
2022-12-15T03:07:56.054Z,30.35
2022-12-15T03:10:26.231Z,35.90
2022-12-15T03:12:55.788Z,31.90
2022-12-15T03:15:23.988Z,30.45
2022-12-15T03:17:53.234Z,32.95
2022-12-15T03:20:23.045Z,32.42
2022-12-15T03:22:51.234Z,32.70
2022-12-15T03:25:19.504Z,36.90
2022-12-15T03:27:47.771Z,29.83
2022-12-15T03:30:16.564Z,31.52
2022-12-15T03:32:44.835Z,32.60
2022-12-15T03:35:13.558Z,34.05
2022-12-15T03:37:43.872Z,31.70
2022-12-15T03:40:14.406Z,32.40
2022-12-15T03:42:51.572Z,33.67
2022-12-15T03:45:21.776Z,31.95
2022-12-15T03:47:50.401Z,32.75
2022-12-15T03:50:20.907Z,31.77
2022-12-15T03:52:53.788Z,31.90
2022-12-15T03:55:22.921Z,30.48
2022-12-15T03:57:51.747Z,30.67
2022-12-15T04:00:21.927Z,26.00
2022-12-15T04:02:50.760Z,29.95
2022-12-15T04:05:22.198Z,29.17
2022-12-15T04:07:50.750Z,28.90
2022-12-15T04:10:20.740Z,33.55
2022-12-15T04:12:49.039Z,31.98
2022-12-15T04:15:17.421Z,30.25
2022-12-15T04:17:45.705Z,31.73
2022-12-15T04:20:14.079Z,53.53
2022-12-15T04:22:44.115Z,29.95
2022-12-15T04:25:32.962Z,36.65
2022-12-15T04:28:20.436Z,32.72
2022-12-15T04:31:10.526Z,33.92
2022-12-15T04:33:58.498Z,32.30
2022-12-15T04:36:44.705Z,31.95
2022-12-15T04:39:30.457Z,35.08
2022-12-15T04:42:17.992Z,29.92
2022-12-15T04:45:06.382Z,34.05
2022-12-15T04:47:52.405Z,33.85
2022-12-15T04:50:38.191Z,29.70
2022-12-15T04:53:28.142Z,37.20
2022-12-15T04:56:18.403Z,29.27
2022-12-15T04:59:04.534Z,33.35
2022-12-15T05:01:52.198Z,33.25
2022-12-15T05:04:38.133Z,31.67
2022-12-15T05:07:23.961Z,33.38
2022-12-15T05:10:15.200Z,30.98
2022-12-15T05:13:01.264Z,33.83
2022-12-15T05:15:47.356Z,31.30
2022-12-15T05:18:34.263Z,31.38
2022-12-15T05:21:19.823Z,37.25
2022-12-15T05:24:05.235Z,30.73
2022-12-15T05:26:53.212Z,35.53
2022-12-15T05:29:39.122Z,33.33
2022-12-15T05:32:07.766Z,32.97
2022-12-15T05:34:38.375Z,33.33
2022-12-15T05:37:07.492Z,34.15
2022-12-15T05:39:35.871Z,32.70
2022-12-15T05:42:04.152Z,34.97
2022-12-15T05:44:32.454Z,30.40
2022-12-15T05:47:00.633Z,35.28
2022-12-15T05:49:28.916Z,32.67
2022-12-15T05:51:58.605Z,28.92
2022-12-15T05:54:27.067Z,34.67
2022-12-15T05:56:55.291Z,27.75
2022-12-15T05:59:23.716Z,33.08
2022-12-15T06:01:52.107Z,33.30
2022-12-15T06:04:20.820Z,27.98
2022-12-15T06:06:49.238Z,39.38
2022-12-15T06:09:18.883Z,39.10
2022-12-15T06:11:47.139Z,34.65
2022-12-15T06:14:15.495Z,36.28
2022-12-15T06:16:50.838Z,36.17
2022-12-15T06:19:20.242Z,37.55
2022-12-15T06:21:48.781Z,36.55
2022-12-15T06:24:18.517Z,40.20
2022-12-15T06:26:49.933Z,32.80
2022-12-15T06:29:19.083Z,37.88
2022-12-15T06:31:47.903Z,38.20
2022-12-15T06:34:17.818Z,37.90
2022-12-15T06:36:46.550Z,37.47
2022-12-15T06:39:16.824Z,42.42
2022-12-15T06:41:46.646Z,42.33
2022-12-15T06:44:15.766Z,40.30
2022-12-15T06:46:45.935Z,40.08
2022-12-15T06:49:14.464Z,34.72
2022-12-15T06:51:44.152Z,39.00
2022-12-15T06:54:13.043Z,36.05
2022-12-15T06:56:42.469Z,43.38
2022-12-15T06:59:13.357Z,33.58
2022-12-15T07:01:43.150Z,38.20
2022-12-15T07:04:11.947Z,42.40
2022-12-15T07:06:40.957Z,41.67
2022-12-15T07:09:13.768Z,41.35
2022-12-15T07:11:42.017Z,49.25
2022-12-15T07:14:12.345Z,39.70
2022-12-15T07:16:41.164Z,39.10
2022-12-15T07:19:12.760Z,44.65
2022-12-15T07:21:41.178Z,38.30
2022-12-15T07:24:11.822Z,41.22
2022-12-15T07:26:40.087Z,39.53
2022-12-15T07:29:08.429Z,35.58
2022-12-15T07:31:38.044Z,43.67
2022-12-15T07:34:06.304Z,43.58
2022-12-15T07:36:34.880Z,54.22
2022-12-15T07:39:04.074Z,46.60
2022-12-15T07:41:32.662Z,50.22
2022-12-15T07:44:02.316Z,45.28
2022-12-15T07:46:30.768Z,45.22
2022-12-15T07:49:00.556Z,54.92
2022-12-15T07:51:29.155Z,47.05
2022-12-15T07:53:57.712Z,46.63
2022-12-15T07:56:26.013Z,44.65
2022-12-15T07:58:54.350Z,46.65
2022-12-15T08:01:22.825Z,43.97
2022-12-15T08:03:51.346Z,46.75
2022-12-15T08:06:21.101Z,44.90
2022-12-15T08:08:51.215Z,40.72
2022-12-15T08:11:21.567Z,40.55
2022-12-15T08:16:39.817Z,47.47
2022-12-15T08:19:11.565Z,46.75
2022-12-15T08:21:42.688Z,40.47
2022-12-15T08:24:11.645Z,37.50
2022-12-15T08:26:41.213Z,37.42
2022-12-15T08:29:48.880Z,40.17
2022-12-15T08:32:00.591Z,41.17
2022-12-15T08:34:28.983Z,44.40
2022-12-15T08:36:58.608Z,43.40
2022-12-15T08:39:27.035Z,42.55
2022-12-15T08:41:55.282Z,39.38
2022-12-15T08:44:23.713Z,40.78
2022-12-15T08:46:52.380Z,42.92
2022-12-15T08:49:22.363Z,36.10
2022-12-15T08:51:51.375Z,38.95
2022-12-15T08:54:21.690Z,42.33
2022-12-15T08:56:50.040Z,41.90
2022-12-15T08:59:19.139Z,37.45
2022-12-15T09:01:47.692Z,43.42
2022-12-15T09:04:16.611Z,42.88
2022-12-15T09:06:50.333Z,44.35
2022-12-15T09:09:21.192Z,45.45
2022-12-15T09:11:49.712Z,44.30
2022-12-15T09:14:21.568Z,41.42
2022-12-15T09:16:54.074Z,42.00
2022-12-15T09:19:22.395Z,42.40
2022-12-15T09:21:50.669Z,33.00
2022-12-15T09:24:32.193Z,37.10
2022-12-15T09:27:03.527Z,35.13
2022-12-15T09:29:32.035Z,33.65
2022-12-15T09:32:00.525Z,28.90
2022-12-15T09:34:29.273Z,34.67
2022-12-15T09:36:57.904Z,33.40
2022-12-15T09:39:27.787Z,36.15
2022-12-15T09:41:59.783Z,35.90
2022-12-15T09:44:29.555Z,34.53
2022-12-15T09:47:07.061Z,38.30
2022-12-15T09:49:47.241Z,38.83
2022-12-15T09:52:18.388Z,32.58
2022-12-15T09:54:48.627Z,38.22
2022-12-15T09:57:26.048Z,39.67
2022-12-15T10:00:16.836Z,33.17
2022-12-15T10:03:30.226Z,34.65
2022-12-15T10:06:16.565Z,32.95
2022-12-15T10:08:58.771Z,32.58
2022-12-15T10:11:44.480Z,29.02
2022-12-15T10:14:26.272Z,29.35
2022-12-15T10:17:02.456Z,28.52
2022-12-15T10:19:40.338Z,27.70
2022-12-15T10:22:14.511Z,30.45
2022-12-15T10:27:55.301Z,31.17
2022-12-15T10:30:23.696Z,32.97
2022-12-15T10:32:58.441Z,33.65
2022-12-15T10:35:30.754Z,33.60
2022-12-15T10:38:01.228Z,29.95
2022-12-15T10:40:50.516Z,34.60
2022-12-15T10:43:27.596Z,33.60
2022-12-15T10:46:05.882Z,31.63
2022-12-15T10:48:34.282Z,37.78
2022-12-15T10:51:20.335Z,33.25
2022-12-15T10:53:50.897Z,28.20
2022-12-15T10:56:32.271Z,30.83
2022-12-15T10:59:22.224Z,26.47
2022-12-15T11:01:53.783Z,30.52
2022-12-15T11:04:29.893Z,30.13
2022-12-15T11:06:59.742Z,31.17
2022-12-15T11:09:34.259Z,31.63
2022-12-15T11:12:20.407Z,34.08
2022-12-15T11:14:51.676Z,31.50
2022-12-15T11:17:21.885Z,33.05
2022-12-15T11:19:59.986Z,30.20
2022-12-15T11:22:47.879Z,37.05
2022-12-15T11:25:30.029Z,32.72
2022-12-15T11:28:01.379Z,30.60
2022-12-15T11:30:39.602Z,36.10
2022-12-15T11:33:09.946Z,35.85
2022-12-15T11:35:57.948Z,36.38
2022-12-15T11:38:33.736Z,37.53
2022-12-15T11:41:09.140Z,36.72
2022-12-15T11:44:06.645Z,35.38
2022-12-15T11:46:42.261Z,30.98
2022-12-15T11:49:42.217Z,32.40
2022-12-15T11:52:18.524Z,35.03
2022-12-15T11:54:55.683Z,34.33
2022-12-15T11:57:54.191Z,36.55
2022-12-15T12:00:26.114Z,30.10
2022-12-15T12:03:13.909Z,30.33
2022-12-15T12:06:08.629Z,28.50
2022-12-15T12:09:10.105Z,33.85
2022-12-15T12:11:44.249Z,28.77
2022-12-15T12:14:33.178Z,30.48
2022-12-15T12:17:08.282Z,33.10
2022-12-15T12:19:42.409Z,27.40
2022-12-15T12:22:17.627Z,30.02
2022-12-15T12:24:48.985Z,29.40
2022-12-15T12:27:30.048Z,31.00
2022-12-15T12:30:03.777Z,26.58
2022-12-15T12:32:40.449Z,30.40
2022-12-15T12:35:30.598Z,30.00
2022-12-15T12:41:00.753Z,26.92
2022-12-15T12:43:34.956Z,29.15
2022-12-15T12:46:10.130Z,29.45
2022-12-15T12:48:42.164Z,27.42
2022-12-15T12:51:31.138Z,29.63
2022-12-15T12:54:03.291Z,27.40
2022-12-15T12:56:43.718Z,35.13
2022-12-15T12:59:38.704Z,30.88
2022-12-15T13:02:46.642Z,34.33
2022-12-15T13:05:28.966Z,31.00
2022-12-15T13:08:27.860Z,33.03
2022-12-15T13:10:57.284Z,32.60
2022-12-15T13:13:51.337Z,29.20
2022-12-15T13:16:25.726Z,32.20
2022-12-15T13:19:05.294Z,31.35
2022-12-15T13:21:55.027Z,31.88
2022-12-15T13:24:37.505Z,30.80
2022-12-15T13:27:15.269Z,29.50
2022-12-15T13:30:14.825Z,26.05
2022-12-15T13:32:45.092Z,30.63
2022-12-15T13:35:26.646Z,30.00
2022-12-15T13:37:56.965Z,32.05
2022-12-15T13:40:34.929Z,31.60
2022-12-15T13:43:11.743Z,30.52
2022-12-15T13:45:51.156Z,33.78
2022-12-15T13:48:33.694Z,36.60
2022-12-15T13:51:20.457Z,30.38
2022-12-15T13:53:52.402Z,33.95
2022-12-15T13:59:01.907Z,37.05
2022-12-15T14:01:33.426Z,35.38
2022-12-15T14:04:07.035Z,40.50
2022-12-15T14:06:42.585Z,35.50
2022-12-15T14:09:15.550Z,42.35
2022-12-15T14:11:54.760Z,35.13
2022-12-15T14:14:28.540Z,32.33
2022-12-15T14:16:59.975Z,32.88
2022-12-15T14:19:38.668Z,32.85
2022-12-15T14:22:28.142Z,37.40
2022-12-15T14:25:03.336Z,38.97
2022-12-15T14:27:35.021Z,35.17
2022-12-15T14:30:29.392Z,41.05
2022-12-15T14:33:00.907Z,37.13
2022-12-15T14:35:32.793Z,40.38
2022-12-15T14:38:04.896Z,36.28
2022-12-15T14:40:36.780Z,36.67
2022-12-15T14:43:07.785Z,35.35
2022-12-15T14:45:36.112Z,37.70
2022-12-15T14:51:01.181Z,38.75
2022-12-15T14:53:34.283Z,39.42
2022-12-15T14:58:48.134Z,31.08
2022-12-15T15:01:25.880Z,40.35
2022-12-15T15:03:10.316Z,28.33
2022-12-15T15:04:02.457Z,38.33
2022-12-15T15:06:37.311Z,37.72
2022-12-15T15:09:18.432Z,35.65
2022-12-15T15:11:48.427Z,38.95
2022-12-15T15:14:21.887Z,38.08
2022-12-15T15:17:03.568Z,40.50
2022-12-15T15:19:36.158Z,37.58
2022-12-15T15:22:07.946Z,39.17
2022-12-15T15:24:39.499Z,41.17
2022-12-15T15:27:32.656Z,42.17
2022-12-15T15:30:21.258Z,46.03
2022-12-15T15:32:57.326Z,45.60
2022-12-15T15:35:27.270Z,37.85
2022-12-15T15:38:06.039Z,43.10
2022-12-15T15:40:34.303Z,43.55
2022-12-15T15:43:02.944Z,38.88
2022-12-15T15:45:32.524Z,42.72
2022-12-15T15:48:00.737Z,47.53
2022-12-15T15:50:30.890Z,44.33
2022-12-15T15:53:02.417Z,38.72
2022-12-15T15:55:39.456Z,41.28
2022-12-15T15:58:12.354Z,51.50
2022-12-15T16:00:41.918Z,70.03
2022-12-15T16:03:10.979Z,57.42
2022-12-15T16:05:39.987Z,75.03
2022-12-15T16:08:08.882Z,69.95
2022-12-15T16:10:37.090Z,48.10
2022-12-15T16:13:05.384Z,39.38
2022-12-15T16:15:33.755Z,57.70
2022-12-15T16:18:03.466Z,57.28
2022-12-15T16:20:35.355Z,70.78
2022-12-15T16:23:05.982Z,53.08
2022-12-15T16:25:46.660Z,41.53
2022-12-15T16:28:18.624Z,65.45
2022-12-15T16:30:47.089Z,128.02
2022-12-15T16:33:19.931Z,87.18
2022-12-15T16:35:49.376Z,49.75
2022-12-15T16:38:23.060Z,51.40
2022-12-15T16:40:52.152Z,40.45
2022-12-15T16:43:23.551Z,44.78
2022-12-15T16:45:53.556Z,41.53
2022-12-15T16:48:23.464Z,40.22
2022-12-15T16:50:55.237Z,41.58
2022-12-15T16:53:25.741Z,45.28
2022-12-15T16:55:56.325Z,45.35
2022-12-15T16:58:27.230Z,46.67
2022-12-15T17:00:55.478Z,59.72
2022-12-15T17:03:27.682Z,59.55
2022-12-15T17:05:59.292Z,60.90
2022-12-15T17:08:34.746Z,62.55
2022-12-15T17:11:03.481Z,59.55
2022-12-15T17:13:40.526Z,51.28
2022-12-15T17:16:14.224Z,48.63
2022-12-15T17:18:44.734Z,56.05
2022-12-15T17:21:17.544Z,48.25
2022-12-15T17:23:47.180Z,41.42
2022-12-15T17:26:28.226Z,54.08
2022-12-15T17:28:59.780Z,48.67
2022-12-15T17:31:34.732Z,63.47
2022-12-15T17:34:23.719Z,52.85
2022-12-15T17:36:51.932Z,60.17
2022-12-15T17:39:22.132Z,69.50
2022-12-15T17:42:05.940Z,60.90
2022-12-15T17:44:38.241Z,58.13
2022-12-15T17:49:39.302Z,48.65
2022-12-15T17:52:14.372Z,66.95
2022-12-15T17:54:42.559Z,68.25
2022-12-15T17:57:12.169Z,47.28
2022-12-15T17:59:40.397Z,51.33
2022-12-15T18:02:11.578Z,49.08
2022-12-15T18:04:44.508Z,44.45
2022-12-15T18:07:18.547Z,40.72
2022-12-15T18:09:47.733Z,40.78
2022-12-15T18:12:19.944Z,79.15
2022-12-15T18:14:50.291Z,100.10
2022-12-15T18:17:18.573Z,174.50
2022-12-15T18:19:48.340Z,82.57
2022-12-15T18:22:21.083Z,75.85
2022-12-15T18:24:50.290Z,55.25
2022-12-15T18:27:23.932Z,62.70
2022-12-15T18:29:52.429Z,62.88
2022-12-15T18:32:22.493Z,50.45
2022-12-15T18:34:52.361Z,54.50
2022-12-15T18:37:23.065Z,63.30
2022-12-15T18:39:51.696Z,57.83
2022-12-15T18:42:22.096Z,53.28
2022-12-15T18:44:52.029Z,59.85
2022-12-15T18:47:22.502Z,56.05
2022-12-15T18:49:53.056Z,51.63
2022-12-15T18:52:23.363Z,44.58
2022-12-15T18:54:54.096Z,43.70
2022-12-15T18:57:29.616Z,40.25
2022-12-15T18:59:59.897Z,46.85
2022-12-15T19:02:28.300Z,45.40
2022-12-15T19:04:58.270Z,45.15
2022-12-15T19:07:26.499Z,44.17
2022-12-15T19:09:55.029Z,39.70
2022-12-15T19:12:23.294Z,49.50
2022-12-15T19:14:53.615Z,55.03
2022-12-15T19:17:42.198Z,45.47
2022-12-15T19:20:35.240Z,56.10
2022-12-15T19:23:03.921Z,51.83
2022-12-15T19:25:32.499Z,47.17
2022-12-15T19:28:02.201Z,47.10
2022-12-15T19:30:37.028Z,45.40
2022-12-15T19:33:10.382Z,46.30
2022-12-15T19:35:41.952Z,59.80
2022-12-15T19:38:18.451Z,65.47
2022-12-15T19:40:47.614Z,70.82
2022-12-15T19:43:17.600Z,66.68
2022-12-15T19:45:46.051Z,69.47
2022-12-15T19:48:17.565Z,70.47
2022-12-15T19:50:51.800Z,74.70
2022-12-15T19:53:26.981Z,73.22
2022-12-15T19:55:57.406Z,61.33
2022-12-15T19:58:29.347Z,58.85
2022-12-15T20:01:01.151Z,62.40
2022-12-15T20:03:31.057Z,60.25
2022-12-15T20:06:02.648Z,64.32
2022-12-15T20:08:35.622Z,79.75
2022-12-15T20:13:32.673Z,84.13
2022-12-15T20:16:01.138Z,80.15
2022-12-15T20:18:30.071Z,83.68
2022-12-15T20:21:01.789Z,98.15
2022-12-15T20:23:31.978Z,83.70
2022-12-15T20:26:01.148Z,58.78
2022-12-15T20:28:31.497Z,50.13
2022-12-15T20:31:00.486Z,50.55
2022-12-15T20:33:28.984Z,48.13
2022-12-15T20:35:57.668Z,50.97
2022-12-15T20:38:30.225Z,57.03
2022-12-15T20:40:59.536Z,49.70
2022-12-15T20:43:31.266Z,49.85
2022-12-15T20:46:04.278Z,56.90
2022-12-15T20:48:34.819Z,62.70
2022-12-15T20:51:08.853Z,49.60
2022-12-15T20:53:39.878Z,48.00
2022-12-15T20:56:09.262Z,46.78
2022-12-15T20:58:40.406Z,49.58
2022-12-15T21:01:19.435Z,43.45
2022-12-15T21:03:48.580Z,45.70
2022-12-15T21:06:16.955Z,50.90
2022-12-15T21:08:47.024Z,50.00
2022-12-15T21:11:18.450Z,46.80
2022-12-15T21:13:49.058Z,61.85
2022-12-15T21:16:19.708Z,69.50
2022-12-15T21:21:38.909Z,44.13
2022-12-15T21:24:17.302Z,42.85
2022-12-15T21:26:46.169Z,46.55
2022-12-15T21:29:16.202Z,42.40
2022-12-15T21:31:44.989Z,43.38
2022-12-15T21:34:13.832Z,42.97
2022-12-15T21:36:44.637Z,43.63
2022-12-15T21:39:21.961Z,42.10
2022-12-15T21:41:50.403Z,40.33
2022-12-15T21:44:19.010Z,45.67
2022-12-15T21:46:47.459Z,42.55
2022-12-15T21:49:15.612Z,40.15
2022-12-15T21:51:47.018Z,40.10
2022-12-15T21:54:19.353Z,31.52
2022-12-15T21:56:48.731Z,34.83
2022-12-15T21:59:18.562Z,37.78
2022-12-15T22:01:47.792Z,34.00
2022-12-15T22:04:19.842Z,35.25
2022-12-15T22:06:50.796Z,35.00
2022-12-15T22:09:21.765Z,35.92
2022-12-15T22:11:54.010Z,35.60
2022-12-15T22:14:26.050Z,31.02
2022-12-15T22:16:54.836Z,32.13
2022-12-15T22:19:25.324Z,36.75
2022-12-15T22:21:53.547Z,36.17
2022-12-15T22:24:23.369Z,37.63
2022-12-15T22:26:51.806Z,37.22
2022-12-15T22:29:22.342Z,31.80
2022-12-15T22:31:51.960Z,32.83
2022-12-15T22:34:22.957Z,35.42
2022-12-15T22:36:52.135Z,43.13
2022-12-15T22:39:22.151Z,46.50
2022-12-15T22:41:51.876Z,36.50
2022-12-15T22:44:23.735Z,39.75
2022-12-15T22:46:54.154Z,37.42
2022-12-15T22:49:24.479Z,36.17
2022-12-15T22:51:52.666Z,30.92
2022-12-15T22:54:27.245Z,36.58
2022-12-15T22:56:58.643Z,30.77
2022-12-15T22:59:30.271Z,27.38
2022-12-15T23:01:58.830Z,36.78
2022-12-15T23:04:27.111Z,34.33
2022-12-15T23:06:55.332Z,32.70
2022-12-15T23:09:24.879Z,31.05
2022-12-15T23:11:52.049Z,31.65
2022-12-15T23:14:40.555Z,31.60
2022-12-15T23:17:08.221Z,27.27
2022-12-15T23:19:36.681Z,30.85
2022-12-15T23:22:04.857Z,27.42
2022-12-15T23:24:35.170Z,28.15
2022-12-15T23:27:03.398Z,30.35
2022-12-15T23:29:31.659Z,28.58
2022-12-15T23:31:59.836Z,30.00
2022-12-15T23:34:28.062Z,28.95
2022-12-15T23:36:56.289Z,41.80
2022-12-15T23:39:24.449Z,33.35
2022-12-15T23:41:54.017Z,28.20
2022-12-15T23:44:22.974Z,23.73
2022-12-15T23:46:51.219Z,30.10
2022-12-15T23:49:19.523Z,25.20
2022-12-15T23:51:48.338Z,29.10
2022-12-15T23:54:16.818Z,26.13
2022-12-15T23:56:44.997Z,26.50
2022-12-15T23:59:14.788Z,23.92
